createdAt,value
2023-02-22T00:01:35.740Z,16.65
2023-02-22T00:04:06.654Z,15.98
2023-02-22T00:06:34.611Z,19.35
2023-02-22T00:09:03.465Z,18.20
2023-02-22T00:11:32.372Z,19.80
2023-02-22T00:14:00.312Z,17.58
2023-02-22T00:16:28.187Z,16.85
2023-02-22T00:18:56.198Z,18.13
2023-02-22T00:21:25.482Z,15.48
2023-02-22T00:23:54.646Z,18.27
2023-02-22T00:26:23.474Z,18.13
2023-02-22T00:28:52.240Z,17.45
2023-02-22T00:31:20.957Z,18.92
2023-02-22T00:33:49.106Z,16.95
2023-02-22T00:36:16.838Z,21.10
2023-02-22T00:38:45.924Z,14.90
2023-02-22T00:41:13.836Z,16.73
2023-02-22T00:43:41.780Z,15.88
2023-02-22T00:46:09.748Z,17.73
2023-02-22T00:48:37.781Z,20.13
2023-02-22T00:51:05.670Z,18.52
2023-02-22T00:53:33.757Z,18.73
2023-02-22T00:56:02.804Z,18.80
2023-02-22T00:58:30.507Z,16.30
2023-02-22T01:00:58.642Z,16.60
2023-02-22T01:03:26.424Z,17.08
2023-02-22T01:05:54.472Z,16.45
2023-02-22T01:08:24.702Z,14.82
2023-02-22T01:10:53.220Z,17.08
2023-02-22T01:13:23.118Z,14.77
2023-02-22T01:15:51.661Z,18.08
2023-02-22T01:18:22.140Z,17.92
2023-02-22T01:20:49.868Z,15.63
2023-02-22T01:23:18.256Z,17.20
2023-02-22T01:25:46.108Z,21.35
2023-02-22T01:28:15.241Z,16.83
2023-02-22T01:30:44.424Z,15.23
2023-02-22T01:33:12.969Z,15.15
2023-02-22T01:35:41.355Z,15.50
2023-02-22T01:38:09.695Z,19.63
2023-02-22T01:40:38.456Z,17.73
2023-02-22T01:43:17.148Z,14.82
2023-02-22T01:45:49.684Z,16.15
2023-02-22T01:48:19.775Z,18.83
2023-02-22T01:50:49.670Z,18.85
2023-02-22T01:53:18.999Z,12.95
2023-02-22T01:55:47.422Z,15.10
2023-02-22T01:58:16.834Z,10.32
2023-02-22T02:00:45.696Z,14.32
2023-02-22T02:03:18.847Z,12.90
2023-02-22T02:08:20.311Z,17.15
2023-02-22T02:10:49.219Z,12.07
2023-02-22T02:13:17.277Z,12.18
2023-02-22T02:15:45.031Z,13.18
2023-02-22T02:18:13.823Z,18.83
2023-02-22T02:20:47.163Z,14.55
2023-02-22T02:23:22.066Z,18.02
2023-02-22T02:26:03.883Z,15.15
2023-02-22T02:28:49.577Z,13.27
2023-02-22T02:31:27.634Z,17.52
2023-02-22T02:34:02.034Z,14.50
2023-02-22T02:36:31.539Z,12.15
2023-02-22T02:39:02.026Z,15.13
2023-02-22T02:41:31.870Z,22.15
2023-02-22T02:44:03.100Z,16.88
2023-02-22T02:46:33.134Z,18.65
2023-02-22T02:49:04.748Z,22.48
2023-02-22T02:51:35.475Z,23.23
2023-02-22T02:54:03.733Z,21.52
2023-02-22T02:56:31.970Z,19.35
2023-02-22T02:59:00.025Z,17.98
2023-02-22T03:01:38.551Z,18.58
2023-02-22T03:04:22.420Z,20.05
2023-02-22T03:06:59.855Z,17.30
2023-02-22T03:09:34.433Z,16.75
2023-02-22T03:12:08.487Z,19.75
2023-02-22T03:14:40.170Z,19.75
2023-02-22T03:17:13.266Z,20.25
2023-02-22T03:22:14.238Z,18.23
2023-02-22T03:24:52.896Z,18.55
2023-02-22T03:27:25.025Z,19.45
2023-02-22T03:29:54.740Z,18.70
2023-02-22T03:32:24.582Z,16.83
2023-02-22T03:34:57.194Z,21.35
2023-02-22T03:37:29.135Z,19.25
2023-02-22T03:39:57.295Z,15.63
2023-02-22T03:42:27.196Z,15.85
2023-02-22T03:44:58.010Z,20.13
2023-02-22T03:47:29.562Z,20.92
2023-02-22T03:49:58.649Z,14.82
2023-02-22T03:52:27.960Z,15.23
2023-02-22T03:54:56.004Z,14.95
2023-02-22T03:57:27.519Z,14.88
2023-02-22T03:59:55.360Z,14.68
2023-02-22T04:02:23.765Z,16.02
2023-02-22T04:04:51.950Z,18.15
2023-02-22T04:07:20.088Z,16.88
2023-02-22T04:09:49.144Z,14.25
2023-02-22T04:12:17.216Z,17.00
2023-02-22T04:14:45.186Z,17.42
2023-02-22T04:17:12.899Z,15.57
2023-02-22T04:19:40.880Z,19.17
2023-02-22T04:22:08.584Z,16.35
2023-02-22T04:24:36.631Z,20.95
2023-02-22T04:27:05.726Z,20.13
2023-02-22T04:29:33.914Z,20.25
2023-02-22T04:32:01.656Z,18.40
2023-02-22T04:34:29.783Z,24.20
2023-02-22T04:36:57.482Z,17.15
2023-02-22T04:39:25.302Z,19.83
2023-02-22T04:41:53.263Z,19.02
2023-02-22T04:44:22.536Z,20.50
2023-02-22T04:46:50.448Z,20.17
2023-02-22T04:49:18.279Z,17.92
2023-02-22T04:51:46.308Z,19.10
2023-02-22T04:54:14.147Z,21.17
2023-02-22T04:56:42.081Z,22.48
2023-02-22T04:59:09.798Z,21.40
2023-02-22T05:01:39.232Z,19.60
2023-02-22T05:04:07.807Z,21.15
2023-02-22T05:06:35.654Z,18.92
2023-02-22T05:09:04.085Z,20.77
2023-02-22T05:11:31.798Z,21.50
2023-02-22T05:13:59.908Z,22.55
2023-02-22T05:16:27.671Z,22.13
2023-02-22T05:18:57.087Z,23.77
2023-02-22T05:21:24.825Z,23.15
2023-02-22T05:23:52.858Z,19.98
2023-02-22T05:26:20.944Z,22.40
2023-02-22T05:28:48.682Z,20.50
2023-02-22T05:31:17.559Z,24.15
2023-02-22T05:33:45.475Z,28.58
2023-02-22T05:36:14.682Z,26.83
2023-02-22T05:38:44.713Z,22.67
2023-02-22T05:41:13.081Z,24.25
2023-02-22T05:43:41.443Z,24.88
2023-02-22T05:46:09.312Z,24.88
2023-02-22T05:48:37.072Z,24.42
2023-02-22T05:51:04.974Z,21.52
2023-02-22T05:53:34.512Z,22.10
2023-02-22T05:56:02.341Z,20.50
2023-02-22T05:58:30.052Z,19.58
2023-02-22T06:00:57.817Z,29.20
2023-02-22T06:03:25.517Z,26.58
2023-02-22T06:05:53.498Z,28.10
2023-02-22T06:08:21.235Z,20.67
2023-02-22T06:10:50.340Z,23.95
2023-02-22T06:13:18.319Z,27.35
2023-02-22T06:15:46.252Z,30.05
2023-02-22T06:18:14.206Z,26.88
2023-02-22T06:20:41.965Z,25.08
2023-02-22T06:23:09.724Z,27.23
2023-02-22T06:25:37.816Z,31.00
2023-02-22T06:28:07.345Z,27.27
2023-02-22T06:30:35.110Z,22.92
2023-02-22T06:33:02.877Z,29.05
2023-02-22T06:35:30.872Z,22.52
2023-02-22T06:37:58.804Z,26.40
2023-02-22T06:40:29.361Z,22.02
2023-02-22T06:42:58.022Z,29.63
2023-02-22T06:45:27.407Z,26.77
2023-02-22T06:47:55.776Z,26.25
2023-02-22T06:50:24.602Z,23.95
2023-02-22T06:52:52.862Z,22.40
2023-02-22T06:55:21.706Z,30.90
2023-02-22T06:57:49.673Z,27.70
2023-02-22T07:00:18.964Z,24.95
2023-02-22T07:02:48.891Z,27.30
2023-02-22T07:05:18.033Z,23.90
2023-02-22T07:07:46.086Z,22.60
2023-02-22T07:10:17.917Z,26.38
2023-02-22T07:12:45.635Z,26.13
2023-02-22T07:15:13.700Z,24.70
2023-02-22T07:17:41.545Z,26.27
2023-02-22T07:20:11.644Z,26.85
2023-02-22T07:22:39.448Z,25.25
2023-02-22T07:25:09.977Z,24.00
2023-02-22T07:27:38.126Z,24.35
2023-02-22T07:30:06.550Z,23.85
2023-02-22T07:32:34.623Z,26.67
2023-02-22T07:35:02.959Z,23.48
2023-02-22T07:37:32.284Z,23.75
2023-02-22T07:40:00.311Z,21.13
2023-02-22T07:42:28.364Z,21.35
2023-02-22T07:44:56.088Z,33.58
2023-02-22T07:47:23.838Z,22.42
2023-02-22T07:49:51.603Z,18.90
2023-02-22T07:52:19.438Z,21.83
2023-02-22T07:54:48.848Z,20.40
2023-02-22T07:57:16.559Z,29.17
2023-02-22T07:59:46.325Z,20.85
2023-02-22T08:02:16.579Z,19.70
2023-02-22T08:04:44.295Z,21.13
2023-02-22T08:07:12.316Z,17.00
2023-02-22T08:09:40.392Z,22.75
2023-02-22T08:12:09.806Z,24.45
2023-02-22T08:14:37.513Z,21.90
2023-02-22T08:17:07.658Z,20.15
2023-02-22T08:19:36.450Z,19.08
2023-02-22T08:22:04.164Z,22.77
2023-02-22T08:24:32.596Z,20.40
2023-02-22T08:27:00.326Z,20.52
2023-02-22T08:29:33.687Z,20.02
2023-02-22T08:32:01.811Z,18.30
2023-02-22T08:34:30.126Z,23.38
2023-02-22T08:36:58.174Z,18.25
2023-02-22T08:39:25.911Z,19.75
2023-02-22T08:41:53.988Z,16.60
2023-02-22T08:44:24.162Z,21.00
2023-02-22T08:46:53.281Z,20.85
2023-02-22T08:49:21.713Z,21.30
2023-02-22T08:51:49.679Z,21.52
2023-02-22T08:54:18.424Z,18.83
2023-02-22T08:56:47.268Z,21.58
2023-02-22T08:59:15.562Z,19.10
2023-02-22T09:01:43.346Z,19.42
2023-02-22T09:04:12.753Z,18.35
2023-02-22T09:06:41.076Z,15.32
2023-02-22T09:09:09.292Z,20.77
2023-02-22T09:11:37.360Z,16.70
2023-02-22T09:14:05.309Z,26.50
2023-02-22T09:16:33.539Z,15.68
2023-02-22T09:19:01.340Z,15.20
2023-02-22T09:21:31.589Z,15.80
2023-02-22T09:24:01.632Z,24.70
2023-02-22T09:26:29.405Z,14.80
2023-02-22T09:28:57.117Z,12.77
2023-02-22T09:31:25.544Z,19.23
2023-02-22T09:33:53.628Z,16.65
2023-02-22T09:36:22.046Z,14.52
2023-02-22T09:38:51.459Z,17.08
2023-02-22T09:41:21.016Z,17.20
2023-02-22T09:43:50.833Z,10.57
2023-02-22T09:46:29.542Z,15.13
2023-02-22T09:49:00.342Z,17.73
2023-02-22T09:51:29.526Z,15.98
2023-02-22T09:54:00.703Z,15.05
2023-02-22T09:56:28.935Z,12.77
2023-02-22T09:58:58.940Z,16.45
2023-02-22T10:01:29.237Z,14.60
2023-02-22T10:04:01.187Z,16.23
2023-02-22T10:06:29.701Z,15.57
2023-02-22T10:09:00.902Z,13.38
2023-02-22T10:11:39.144Z,15.93
2023-02-22T10:14:23.119Z,13.85
2023-02-22T10:16:54.174Z,12.13
2023-02-22T10:19:25.976Z,14.95
2023-02-22T10:22:05.204Z,14.27
2023-02-22T10:24:39.935Z,14.65
2023-02-22T10:27:08.809Z,13.77
2023-02-22T10:29:39.882Z,14.90
2023-02-22T10:32:12.483Z,13.27
2023-02-22T10:34:42.462Z,17.17
2023-02-22T10:37:17.722Z,13.98
2023-02-22T10:39:49.318Z,16.83
2023-02-22T10:42:17.393Z,16.77
2023-02-22T10:44:45.518Z,11.65
2023-02-22T10:47:18.028Z,14.02
2023-02-22T10:49:48.147Z,13.45
2023-02-22T10:52:20.493Z,11.30
2023-02-22T10:54:51.760Z,13.00
2023-02-22T10:57:22.087Z,13.07
2023-02-22T10:59:51.981Z,12.70
2023-02-22T11:02:20.604Z,13.63
2023-02-22T11:04:50.826Z,12.70
2023-02-22T11:07:23.875Z,13.80
2023-02-22T11:09:54.458Z,11.70
2023-02-22T11:12:26.424Z,13.27
2023-02-22T11:14:54.353Z,9.52
2023-02-22T11:17:28.660Z,13.00
2023-02-22T11:19:56.642Z,11.25
2023-02-22T11:22:26.023Z,13.18
2023-02-22T11:24:57.970Z,10.93
2023-02-22T11:27:34.215Z,10.80
2023-02-22T11:30:11.287Z,12.90
2023-02-22T11:32:44.922Z,11.23
2023-02-22T11:35:20.917Z,13.90
2023-02-22T11:37:48.672Z,12.27
2023-02-22T11:40:22.390Z,12.38
2023-02-22T11:42:51.141Z,13.65
2023-02-22T11:45:21.293Z,13.05
2023-02-22T11:47:53.242Z,13.35
2023-02-22T11:50:28.818Z,12.15
2023-02-22T11:53:05.502Z,11.32
2023-02-22T11:55:42.859Z,12.38
2023-02-22T11:58:23.434Z,11.77
2023-02-22T12:00:54.157Z,11.60
2023-02-22T12:03:37.125Z,13.23
2023-02-22T12:06:12.998Z,11.68
2023-02-22T12:08:46.958Z,11.55
2023-02-22T12:11:19.832Z,11.10
2023-02-22T12:13:55.922Z,12.38
2023-02-22T12:16:29.017Z,14.77
2023-02-22T12:21:25.236Z,13.68
2023-02-22T12:23:55.530Z,14.75
2023-02-22T12:26:26.812Z,14.27
2023-02-22T12:28:59.357Z,12.40
2023-02-22T12:31:30.423Z,10.38
2023-02-22T12:34:02.485Z,12.40
2023-02-22T12:36:35.317Z,12.80
2023-02-22T12:39:07.536Z,14.20
2023-02-22T12:41:40.125Z,18.77
2023-02-22T12:44:09.843Z,15.32
2023-02-22T12:46:38.850Z,14.38
2023-02-22T12:49:14.115Z,12.05
2023-02-22T12:51:45.438Z,14.95
2023-02-22T12:54:15.646Z,14.52
2023-02-22T12:56:45.957Z,13.02
2023-02-22T12:59:19.246Z,10.77
2023-02-22T13:01:52.231Z,10.25
2023-02-22T13:04:21.457Z,13.32
2023-02-22T13:06:54.521Z,13.50
2023-02-22T13:09:39.007Z,12.77
2023-02-22T13:12:10.626Z,11.85
2023-02-22T13:14:44.787Z,11.50
2023-02-22T13:17:21.256Z,10.57
2023-02-22T13:19:53.423Z,12.50
2023-02-22T13:22:25.329Z,10.63
2023-02-22T13:25:00.553Z,14.77
2023-02-22T13:27:32.134Z,11.75
2023-02-22T13:30:01.414Z,12.25
2023-02-22T13:32:36.798Z,9.18
2023-02-22T13:35:13.390Z,10.93
2023-02-22T13:38:02.010Z,11.85
2023-02-22T13:41:02.802Z,9.60
2023-02-22T13:43:50.663Z,11.43
2023-02-22T13:46:27.157Z,10.05
2023-02-22T13:49:16.237Z,9.50
2023-02-22T13:51:49.177Z,12.10
2023-02-22T13:54:20.351Z,12.02
2023-02-22T13:56:49.432Z,13.10
2023-02-22T13:59:26.277Z,14.20
2023-02-22T14:01:55.218Z,12.05
2023-02-22T14:04:33.971Z,14.70
2023-02-22T14:07:02.505Z,14.20
2023-02-22T14:09:45.688Z,13.13
2023-02-22T14:12:28.380Z,15.48
2023-02-22T14:15:31.270Z,14.65
2023-02-22T14:17:59.662Z,18.07
2023-02-22T14:20:35.183Z,16.05
2023-02-22T14:23:21.722Z,13.05
2023-02-22T14:25:49.681Z,15.70
2023-02-22T14:28:39.802Z,12.70
2023-02-22T14:31:17.396Z,11.88
2023-02-22T14:33:51.872Z,16.80
2023-02-22T14:36:21.117Z,15.73
2023-02-22T14:38:52.465Z,13.98
2023-02-22T14:41:20.747Z,13.02
2023-02-22T14:43:50.663Z,10.98
2023-02-22T14:46:23.009Z,12.90
2023-02-22T14:48:52.794Z,14.73
2023-02-22T14:51:25.118Z,13.93
2023-02-22T14:53:55.758Z,14.35
2023-02-22T14:56:25.617Z,15.07
2023-02-22T14:58:56.233Z,22.25
2023-02-22T15:01:33.979Z,13.80
2023-02-22T15:04:20.967Z,16.88
2023-02-22T15:06:49.006Z,13.98
2023-02-22T15:09:25.704Z,15.23
2023-02-22T15:11:56.208Z,15.90
2023-02-22T15:14:26.851Z,15.43
2023-02-22T15:16:57.536Z,11.43
2023-02-22T15:19:26.855Z,14.35
2023-02-22T15:21:55.768Z,11.90
2023-02-22T15:24:25.639Z,12.55
2023-02-22T15:27:01.935Z,12.70
2023-02-22T15:29:33.868Z,13.20
2023-02-22T15:32:03.081Z,15.07
2023-02-22T15:34:32.085Z,12.45
2023-02-22T15:37:06.528Z,13.38
2023-02-22T15:39:43.739Z,12.65
2023-02-22T15:42:19.588Z,15.43
2023-02-22T15:44:48.328Z,15.63
2023-02-22T15:47:19.711Z,13.65
2023-02-22T15:49:47.480Z,12.63
2023-02-22T15:52:20.454Z,13.82
2023-02-22T15:54:50.020Z,14.75
2023-02-22T15:57:19.639Z,14.57
2023-02-22T15:59:49.709Z,11.73
2023-02-22T16:02:38.971Z,18.15
2023-02-22T16:05:10.257Z,11.13
2023-02-22T16:07:41.803Z,13.90
2023-02-22T16:10:17.559Z,13.98
2023-02-22T16:12:45.573Z,13.40
2023-02-22T16:15:17.545Z,18.15
2023-02-22T16:18:00.961Z,14.35
2023-02-22T16:20:38.696Z,16.88
2023-02-22T16:23:21.449Z,14.80
2023-02-22T16:26:01.902Z,17.73
2023-02-22T16:28:34.111Z,13.25
2023-02-22T16:31:02.774Z,25.87
2023-02-22T16:33:33.670Z,17.60
2023-02-22T16:36:08.339Z,14.25
2023-02-22T16:38:38.434Z,17.65
2023-02-22T16:41:07.382Z,13.05
2023-02-22T16:43:35.540Z,14.55
2023-02-22T16:46:04.071Z,16.05
2023-02-22T16:48:33.567Z,13.93
2023-02-22T16:51:02.985Z,17.15
2023-02-22T16:53:33.004Z,15.88
2023-02-22T17:02:51.074Z,14.82
2023-02-22T17:05:18.840Z,19.38
2023-02-22T17:07:46.672Z,16.42
2023-02-22T17:10:17.286Z,18.30
2023-02-22T17:12:46.323Z,20.70
2023-02-22T17:15:20.767Z,15.82
2023-02-22T17:17:48.847Z,17.40
2023-02-22T17:20:24.719Z,16.60
2023-02-22T17:22:52.510Z,20.33
2023-02-22T17:25:24.070Z,15.65
2023-02-22T17:27:51.913Z,18.48
2023-02-22T17:30:23.813Z,17.05
2023-02-22T17:32:52.427Z,22.63
2023-02-22T17:35:23.235Z,17.48
2023-02-22T17:37:51.283Z,21.77
2023-02-22T17:40:19.193Z,20.33
2023-02-22T17:42:50.284Z,20.65
2023-02-22T17:45:18.253Z,19.27
2023-02-22T17:47:46.045Z,16.70
2023-02-22T17:50:15.390Z,17.52
2023-02-22T17:52:43.548Z,22.98
2023-02-22T17:55:12.017Z,17.08
2023-02-22T17:57:43.955Z,17.73
2023-02-22T18:00:15.799Z,25.67
2023-02-22T18:02:44.117Z,21.00
2023-02-22T18:05:16.188Z,16.90
2023-02-22T18:07:44.288Z,23.83
2023-02-22T18:10:12.781Z,19.77
2023-02-22T18:12:40.775Z,22.05
2023-02-22T18:15:10.781Z,19.77
2023-02-22T18:17:39.861Z,19.02
2023-02-22T18:20:11.908Z,18.77
2023-02-22T18:22:42.055Z,24.38
2023-02-22T18:25:10.311Z,22.17
2023-02-22T18:27:38.585Z,21.80
2023-02-22T18:30:06.977Z,19.67
2023-02-22T18:32:35.016Z,14.93
2023-02-22T18:35:04.148Z,21.42
2023-02-22T18:37:31.856Z,23.48
2023-02-22T18:39:59.656Z,15.95
2023-02-22T18:42:28.010Z,17.98
2023-02-22T18:45:00.591Z,19.00
2023-02-22T18:47:28.332Z,18.88
2023-02-22T18:49:57.052Z,24.77
2023-02-22T18:52:26.156Z,25.98
2023-02-22T18:54:54.488Z,19.77
2023-02-22T18:57:23.074Z,21.23
2023-02-22T18:59:51.079Z,22.98
2023-02-22T19:02:20.480Z,17.52
2023-02-22T19:04:48.338Z,18.95
2023-02-22T19:07:18.524Z,18.92
2023-02-22T19:09:51.196Z,18.70
2023-02-22T19:12:19.316Z,20.42
2023-02-22T19:14:47.092Z,21.63
2023-02-22T19:17:16.221Z,17.70
2023-02-22T19:19:44.396Z,21.50
2023-02-22T19:22:15.096Z,19.25
2023-02-22T19:24:43.156Z,19.10
2023-02-22T19:27:12.280Z,19.00
2023-02-22T19:29:40.581Z,19.20
2023-02-22T19:32:09.135Z,23.38
2023-02-22T19:34:37.297Z,18.05
2023-02-22T19:37:05.942Z,16.75
2023-02-22T19:39:38.344Z,20.77
2023-02-22T19:42:09.495Z,17.33
2023-02-22T19:44:38.768Z,20.73
2023-02-22T19:47:09.107Z,21.02
2023-02-22T19:49:38.036Z,19.25
2023-02-22T19:52:07.245Z,18.95
2023-02-22T19:54:35.043Z,22.65
2023-02-22T19:57:03.546Z,45.03
2023-02-22T19:59:31.423Z,27.85
2023-02-22T20:02:00.509Z,24.63
2023-02-22T20:04:31.375Z,40.30
2023-02-22T20:06:59.367Z,42.53
2023-02-22T20:09:33.991Z,41.22
2023-02-22T20:12:01.937Z,29.13
2023-02-22T20:14:30.459Z,26.92
2023-02-22T20:16:59.772Z,26.70
2023-02-22T20:19:28.983Z,28.73
2023-02-22T20:21:57.162Z,26.05
2023-02-22T20:24:25.499Z,27.80
2023-02-22T20:26:55.723Z,25.75
2023-02-22T20:29:29.935Z,27.10
2023-02-22T20:31:58.569Z,22.60
2023-02-22T20:34:31.436Z,27.15
2023-02-22T20:37:00.726Z,22.48
2023-02-22T20:39:28.541Z,21.13
2023-02-22T20:41:56.297Z,23.55
2023-02-22T20:44:24.271Z,17.95
2023-02-22T20:46:52.165Z,18.35
2023-02-22T20:49:21.624Z,20.90
2023-02-22T20:51:49.921Z,18.30
2023-02-22T20:54:18.992Z,20.50
2023-02-22T20:56:47.647Z,19.75
2023-02-22T20:59:16.159Z,22.83
2023-02-22T21:01:44.117Z,20.63
2023-02-22T21:04:13.427Z,24.33
2023-02-22T21:06:41.578Z,23.98
2023-02-22T21:09:12.633Z,23.60
2023-02-22T21:11:42.387Z,23.15
2023-02-22T21:14:10.708Z,25.35
2023-02-22T21:16:38.551Z,30.35
2023-02-22T21:19:07.271Z,33.65
2023-02-22T21:21:35.629Z,34.63
2023-02-22T21:24:03.618Z,33.63
2023-02-22T21:26:33.224Z,30.73
2023-02-22T21:29:03.833Z,35.95
2023-02-22T21:31:35.358Z,27.92
2023-02-22T21:34:04.138Z,29.02
2023-02-22T21:36:32.090Z,23.92
2023-02-22T21:39:00.977Z,21.95
2023-02-22T21:41:30.365Z,23.55
2023-02-22T21:43:58.901Z,24.73
2023-02-22T21:46:28.991Z,23.42
2023-02-22T21:48:58.958Z,29.20
2023-02-22T21:51:30.801Z,28.27
2023-02-22T21:54:00.998Z,23.15
2023-02-22T21:56:29.611Z,27.92
2023-02-22T21:59:03.013Z,23.40
2023-02-22T22:01:32.932Z,24.75
2023-02-22T22:04:01.757Z,30.23
2023-02-22T22:06:30.516Z,34.30
2023-02-22T22:08:59.788Z,31.13
2023-02-22T22:11:27.805Z,28.67
2023-02-22T22:13:57.371Z,32.90
2023-02-22T22:16:27.257Z,28.30
2023-02-22T22:18:57.349Z,26.65
2023-02-22T22:21:27.235Z,29.40
2023-02-22T22:23:56.127Z,25.45
2023-02-22T22:26:25.270Z,29.17
2023-02-22T22:28:53.928Z,29.08
2023-02-22T22:31:23.714Z,31.42
2023-02-22T22:33:51.988Z,26.88
2023-02-22T22:36:22.389Z,25.40
2023-02-22T22:38:50.491Z,24.15
2023-02-22T22:41:20.209Z,25.48
2023-02-22T22:43:48.239Z,28.30
2023-02-22T22:46:17.572Z,29.08
2023-02-22T22:48:47.348Z,31.63
2023-02-22T22:51:16.329Z,30.20
2023-02-22T22:53:46.261Z,27.00
2023-02-22T22:56:15.807Z,29.75
2023-02-22T22:58:44.900Z,28.02
2023-02-22T23:01:18.105Z,28.73
2023-02-22T23:03:55.413Z,28.50
2023-02-22T23:06:25.675Z,34.05
2023-02-22T23:09:01.853Z,30.30
2023-02-22T23:11:33.538Z,25.27
2023-02-22T23:14:02.982Z,28.35
2023-02-22T23:16:32.503Z,27.20
2023-02-22T23:19:00.496Z,29.52
2023-02-22T23:21:28.499Z,28.13
2023-02-22T23:23:58.405Z,36.20
2023-02-22T23:26:27.571Z,34.15
2023-02-22T23:28:56.393Z,33.97
2023-02-22T23:31:25.052Z,33.85
2023-02-22T23:33:52.804Z,28.52
2023-02-22T23:36:21.028Z,31.05
2023-02-22T23:38:49.991Z,28.85
2023-02-22T23:41:18.039Z,29.50
2023-02-22T23:43:47.575Z,24.15
2023-02-22T23:46:18.654Z,21.65
2023-02-22T23:48:50.844Z,32.15
2023-02-22T23:51:20.444Z,29.70
2023-02-22T23:53:49.594Z,25.75
2023-02-22T23:56:18.965Z,21.52
2023-02-22T23:58:50.229Z,25.45
